Time;durP1;ratioP1;P1;durP2;ratioP2;P2;SDS_P1;SDS_P2;PMS_P1;PMS_P2;Temp;Humidity;BMP_temperature;BMP_pressure;BME280_temperature;BME280_humidity;BME280_pressure;Samples;Min_cycle;Max_cycle;Signal;HPM_P1;HPM_P2
2023/01/19 00:00:10;;;;;;;;;13.00;10.20;;;;;6.05;65.61;100101.19;2079385;27;46581;-66
2023/01/19 00:01:11;;;;;;;;;10.00;9.20;;;;;6.05;65.60;100102.06;2077305;27;46636;-66
2023/01/19 00:02:11;;;;;;;;;8.00;8.00;;;;;6.05;65.52;100099.41;2071407;28;45529;-66
2023/01/19 00:03:14;;;;;;;;;9.00;9.00;;;;;6.06;65.67;100103.78;2081510;27;46831;-66
2023/01/19 00:04:15;;;;;;;;;10.60;10.60;;;;;6.06;65.36;100101.16;2072398;27;46954;-65
2023/01/19 00:05:16;;;;;;;;;10.00;10.00;;;;;6.06;65.38;100095.88;2065062;27;46394;-65
2023/01/19 00:06:16;;;;;;;;;9.50;9.50;;;;;6.07;65.72;100099.41;2073007;27;46933;-66
2023/01/19 00:07:17;;;;;;;;;10.75;9.75;;;;;6.08;65.29;100102.00;2068495;27;46490;-64
2023/01/19 00:08:17;;;;;;;;;11.00;10.75;;;;;6.10;65.24;100104.66;2072596;27;45016;-66
2023/01/19 00:09:18;;;;;;;;;13.00;13.00;;;;;6.10;65.34;100110.78;2069496;27;46602;-66
2023/01/19 00:10:18;;;;;;;;;11.25;11.00;;;;;6.13;65.69;100109.88;2057171;28;45473;-65
2023/01/19 00:11:19;;;;;;;;;10.00;10.00;;;;;6.15;65.57;100110.72;2071266;28;45478;-66
2023/01/19 00:12:19;;;;;;;;;11.00;10.75;;;;;6.17;65.70;100111.56;2076543;27;45387;-66
2023/01/19 00:13:19;;;;;;;;;13.75;13.75;;;;;6.18;65.47;100114.16;2073808;27;46444;-67
2023/01/19 00:14:20;;;;;;;;;1.00;1.00;;;;;6.19;65.75;100104.50;2096095;27;46345;-65
2023/01/19 00:15:20;;;;;;;;;15.75;12.25;;;;;6.22;65.71;100109.72;2090795;27;46530;-67
2023/01/19 00:16:22;;;;;;;;;10.75;10.75;;;;;6.25;65.52;100111.47;2112301;27;46196;-66
2023/01/19 00:17:22;;;;;;;;;15.60;15.60;;;;;6.26;65.48;100116.72;2087904;27;45668;-67
2023/01/19 00:18:22;;;;;;;;;12.25;12.25;;;;;6.28;65.22;100120.19;2098131;27;46129;-66
2023/01/19 00:19:23;;;;;;;;;15.00;12.25;;;;;6.29;65.59;100106.13;2090633;27;46797;-65
2023/01/19 00:20:23;;;;;;;;;16.00;14.00;;;;;6.32;65.49;100115.75;2077546;27;46469;-67
2023/01/19 00:21:24;;;;;;;;;13.75;13.75;;;;;6.32;65.26;100110.47;2101094;27;46310;-65
2023/01/19 00:22:24;;;;;;;;;14.75;12.75;;;;;6.35;65.25;100118.31;2072721;28;47227;-65
2023/01/19 00:23:24;;;;;;;;;12.75;12.75;;;;;6.36;65.29;100120.09;2067467;27;45883;-67
2023/01/19 00:24:25;;;;;;;;;13.50;12.50;;;;;6.36;65.01;100112.19;2081782;27;46449;-66
2023/01/19 00:25:25;;;;;;;;;12.25;12.25;;;;;6.36;65.21;100120.09;2068075;27;45880;-67
2023/01/19 00:26:25;;;;;;;;;15.00;15.00;;;;;6.37;65.19;100114.81;2069651;27;45070;-65
2023/01/19 00:27:26;;;;;;;;;10.50;10.50;;;;;6.37;65.17;100112.16;2071452;28;46256;-66
2023/01/19 00:28:26;;;;;;;;;13.75;12.50;;;;;6.39;65.30;100120.03;2070310;27;46707;-67
2023/01/19 00:29:29;;;;;;;;;12.25;12.25;;;;;6.40;65.19;100113.88;2114062;27;46565;-67
2023/01/19 00:30:29;;;;;;;;;14.20;12.00;;;;;6.41;65.12;100112.97;2072391;27;46384;-66
2023/01/19 00:31:32;;;;;;;;;15.50;15.25;;;;;6.43;65.08;100116.47;2076300;27;46519;-66
2023/01/19 00:32:33;;;;;;;;;15.80;15.40;;;;;6.43;65.24;100119.09;2065671;28;47005;-66
2023/01/19 00:33:33;;;;;;;;;18.25;16.00;;;;;6.42;65.21;100120.88;2067560;28;46483;-67
2023/01/19 00:34:38;;;;;;;;;20.00;16.00;;;;;6.41;64.86;100115.63;2104743;27;46041;-68
2023/01/19 00:35:39;;;;;;;;;16.20;16.20;;;;;6.40;65.03;100121.78;2098553;27;46886;-65
2023/01/19 00:36:39;;;;;;;;;4.50;3.25;;;;;6.38;64.90;100123.56;2075517;28;46510;-65
2023/01/19 00:37:40;;;;;;;;;20.50;17.25;;;;;6.35;64.99;100126.22;2092783;28;44986;-67
2023/01/19 00:38:40;;;;;;;;;15.50;15.50;;;;;6.32;64.88;100121.88;2070477;28;46284;-66
2023/01/19 00:39:40;;;;;;;;;20.25;17.25;;;;;6.30;64.94;100125.44;2086305;28;45953;-66
2023/01/19 00:40:40;;;;;;;;;15.00;14.00;;;;;6.28;64.68;100117.56;2092819;27;46449;-65
2023/01/19 00:43:00;;;;;;;;;15.00;15.00;;;;;6.29;64.84;100118.44;2089102;28;46319;-65
2023/01/19 00:44:00;;;;;;;;;16.75;16.75;;;;;6.28;64.78;100119.31;2100913;28;46447;-66
2023/01/19 00:45:00;;;;;;;;;16.50;16.00;;;;;6.27;64.70;100113.19;2085344;28;46529;-66
2023/01/19 00:46:01;;;;;;;;;20.25;17.25;;;;;6.26;64.99;100121.97;2066864;28;46605;-67
2023/01/19 00:47:03;;;;;;;;;18.25;15.00;;;;;6.25;64.64;100120.25;2083520;28;46396;-65
2023/01/19 00:48:04;;;;;;;;;18.80;18.80;;;;;6.24;64.76;100115.88;2077677;28;46752;-66
2023/01/19 00:49:05;;;;;;;;;11.60;11.60;;;;;6.24;64.66;100122.91;2087307;28;46662;-65
2023/01/19 00:50:07;;;;;;;;;17.25;17.25;;;;;6.23;64.97;100126.44;2061071;28;46169;-65
2023/01/19 00:51:08;;;;;;;;;22.00;16.60;;;;;6.21;64.67;100129.06;2061382;28;47585;-66
2023/01/19 00:52:08;;;;;;;;;21.00;16.00;;;;;6.21;65.26;100121.16;2061783;28;46748;-66
2023/01/19 00:53:08;;;;;;;;;17.50;16.50;;;;;6.22;65.15;100127.28;2064875;28;46726;-66
2023/01/19 00:54:09;;;;;;;;;18.00;17.50;;;;;6.24;65.08;100125.53;2061407;28;46674;-66
2023/01/19 00:55:11;;;;;;;;;21.25;20.75;;;;;6.24;65.00;100136.94;2094397;28;47396;-65
2023/01/19 00:56:12;;;;;;;;;17.80;16.40;;;;;6.24;65.09;100131.69;2086839;28;47097;-65
2023/01/19 00:57:14;;;;;;;;;19.00;18.25;;;;;6.22;65.32;100125.53;2104083;28;46335;-66
2023/01/19 00:58:14;;;;;;;;;16.40;15.80;;;;;6.23;64.99;100129.94;2068943;28;46270;-65
2023/01/19 00:59:15;;;;;;;;;16.00;15.00;;;;;6.23;64.96;100135.22;2063299;28;46206;-65
2023/01/19 01:00:18;;;;;;;;;14.50;14.00;;;;;6.22;64.91;100125.53;2063109;28;46257;-66
2023/01/19 01:01:18;;;;;;;;;20.80;17.60;;;;;6.22;65.24;100127.28;2057644;28;46093;-66
2023/01/19 01:02:18;;;;;;;;;17.75;17.75;;;;;6.21;65.50;100129.06;2053537;28;46578;-65
2023/01/19 01:03:19;;;;;;;;;15.25;15.25;;;;;6.21;65.19;100131.69;2064732;28;46449;-64
2023/01/19 01:04:19;;;;;;;;;21.50;18.00;;;;;6.20;65.43;100130.81;2065629;28;46277;-65
2023/01/19 01:05:20;;;;;;;;;20.50;19.75;;;;;6.20;65.08;100128.19;2061681;28;46505;-66
2023/01/19 01:06:21;;;;;;;;;16.80;16.00;;;;;6.22;65.49;100132.56;2086034;28;46401;-65
2023/01/19 01:07:23;;;;;;;;;20.25;16.00;;;;;6.20;65.14;100133.47;2067167;28;46074;-64
2023/01/19 01:08:23;;;;;;;;;21.00;17.80;;;;;6.20;65.46;100135.22;2069012;27;46983;-67
2023/01/19 01:09:24;;;;;;;;;20.00;16.50;;;;;6.20;65.33;100140.50;2079500;27;46086;-66
2023/01/19 01:10:27;;;;;;;;;18.50;17.00;;;;;6.18;65.11;100140.50;2070993;27;46332;-65
2023/01/19 01:11:27;;;;;;;;;21.20;19.00;;;;;6.18;65.60;100139.66;2079466;27;46570;-64
2023/01/19 01:12:28;;;;;;;;;24.00;20.00;;;;;6.17;65.38;100146.69;2080605;27;45501;-66
2023/01/19 01:13:28;;;;;;;;;18.25;17.25;;;;;6.15;65.15;100142.31;2070505;27;46741;-65
2023/01/19 01:14:28;;;;;;;;;21.75;21.00;;;;;6.14;65.66;100152.00;2075423;27;47628;-66
2023/01/19 01:15:29;;;;;;;;;17.75;16.75;;;;;6.14;65.34;100145.84;2069745;28;46371;-66
2023/01/19 01:16:29;;;;;;;;;19.00;18.00;;;;;6.13;65.48;100158.16;2067341;28;46567;-66
2023/01/19 01:17:30;;;;;;;;;21.50;19.75;;;;;6.13;65.63;100158.16;2076419;28;46950;-65
2023/01/19 01:18:30;;;;;;;;;22.25;18.50;;;;;6.12;65.69;100158.19;2070356;27;46894;-65
2023/01/19 01:19:30;;;;;;;;;18.50;18.50;;;;;6.11;65.11;100159.94;2085694;27;46572;-66
2023/01/19 01:20:33;;;;;;;;;16.00;16.00;;;;;6.11;65.30;100157.31;2076254;27;46843;-67
2023/01/19 01:21:34;;;;;;;;;18.20;16.20;;;;;6.10;65.57;100158.19;2058407;28;47142;-66
2023/01/19 01:22:34;;;;;;;;;19.40;16.00;;;;;6.10;65.72;100159.97;2064202;28;45865;-66
2023/01/19 01:23:35;;;;;;;;;19.50;17.25;;;;;6.13;65.53;100162.56;2074331;27;46306;-66
2023/01/19 01:24:35;;;;;;;;;19.25;19.25;;;;;6.12;65.48;100160.81;2071373;28;46197;-66
2023/01/19 01:25:37;;;;;;;;;19.75;17.50;;;;;6.13;65.50;100162.56;2075947;27;46814;-66
2023/01/19 01:26:38;;;;;;;;;13.80;13.20;;;;;6.13;65.04;100162.56;2095069;28;46525;-66
2023/01/19 01:27:38;;;;;;;;;17.25;14.50;;;;;6.12;65.10;100160.81;2067031;27;47048;-66
2023/01/19 01:28:38;;;;;;;;;17.50;15.50;;;;;6.13;65.33;100168.69;2081302;28;46406;-65
2023/01/19 01:29:40;;;;;;;;;19.50;17.75;;;;;6.11;65.06;100167.84;2080243;28;45227;-66
2023/01/19 01:30:42;;;;;;;;;17.00;16.60;;;;;6.10;65.19;100173.13;2103869;27;46399;-65
2023/01/19 01:31:42;;;;;;;;;19.20;18.80;;;;;6.10;65.47;100171.38;2070736;27;45856;-67
2023/01/19 01:32:42;;;;;;;;;21.50;18.25;;;;;6.11;65.25;100178.38;2065763;28;46606;-66
2023/01/19 01:33:43;;;;;;;;;17.00;15.25;;;;;6.12;65.35;100179.25;2073697;27;47066;-65
2023/01/19 01:34:43;;;;;;;;;19.75;19.75;;;;;6.11;64.88;100177.50;2070646;28;46741;-65
2023/01/19 01:35:44;;;;;;;;;18.25;17.00;;;;;6.13;65.47;100178.38;2092010;27;46340;-66
2023/01/19 01:36:44;;;;;;;;;22.25;19.75;;;;;6.10;65.06;100175.78;2068878;27;46047;-65
2023/01/19 01:37:44;;;;;;;;;19.25;16.25;;;;;6.08;65.32;100178.41;2084567;27;46604;-65
2023/01/19 01:38:45;;;;;;;;;18.50;15.00;;;;;6.07;65.09;100181.06;2060170;28;46687;-66
2023/01/19 01:39:45;;;;;;;;;23.00;19.75;;;;;6.03;65.33;100184.63;2061646;27;46789;-65
2023/01/19 01:40:46;;;;;;;;;21.00;17.25;;;;;6.01;65.56;100183.78;2091059;27;46884;-66
2023/01/19 01:41:46;;;;;;;;;19.75;19.75;;;;;6.02;65.14;100185.50;2077828;27;46608;-66
2023/01/19 01:42:46;;;;;;;;;19.00;17.00;;;;;5.99;65.59;100183.78;2074777;27;46565;-67
2023/01/19 01:43:53;;;;;;;;;15.00;15.00;;;;;6.02;65.83;100191.66;2091091;27;46557;-66
2023/01/19 01:44:56;;;;;;;;;16.80;14.40;;;;;6.01;65.11;100176.75;2072976;27;45391;-65
2023/01/19 01:45:56;;;;;;;;;15.20;15.20;;;;;6.01;65.08;100187.28;2079783;27;46563;-63
2023/01/19 01:46:57;;;;;;;;;18.50;16.50;;;;;6.00;65.13;100187.31;2084265;28;45068;-66
2023/01/19 01:48:15;;;;;;;;;17.50;17.50;;;;;6.01;65.86;100189.03;2053663;28;46230;-66
2023/01/19 01:49:16;;;;;;;;;16.40;15.40;;;;;6.00;65.53;100189.94;2066116;28;46757;-65
2023/01/19 01:50:21;;;;;;;;;17.40;16.00;;;;;6.01;65.38;100189.03;2084900;28;46296;-66
2023/01/19 01:51:30;;;;;;;;;14.00;14.00;;;;;6.01;65.47;100194.31;2065127;27;46676;-67
2023/01/19 01:52:35;;;;;;;;;15.00;14.00;;;;;6.00;65.42;100195.19;2069906;27;46840;-66
2023/01/19 01:53:38;;;;;;;;;16.80;16.00;;;;;5.99;64.85;100196.97;2070149;27;46503;-66
2023/01/19 01:54:38;;;;;;;;;16.60;15.20;;;;;5.95;64.94;100200.50;2071606;27;46668;-67
2023/01/19 01:55:46;;;;;;;;;19.50;17.00;;;;;5.91;64.88;100198.81;2062314;28;46102;-65
2023/01/19 01:56:51;;;;;;;;;18.60;15.40;;;;;5.87;64.86;100199.69;2068596;27;46754;-66
2023/01/19 01:57:56;;;;;;;;;18.00;16.40;;;;;5.85;64.98;100209.38;2070664;27;47222;-65
2023/01/19 01:58:57;;;;;;;;;17.00;17.00;;;;;5.84;65.28;100210.25;2072635;27;46346;-67
2023/01/19 01:59:58;;;;;;;;;15.00;13.20;;;;;5.82;65.20;100197.09;2079261;27;46892;-67
2023/01/19 02:03:43;;;;;;;;;16.40;15.80;;;;;5.74;65.26;100204.22;2062968;27;46427;-66
2023/01/19 02:04:49;;;;;;;;;17.25;16.25;;;;;5.71;65.57;100201.59;2088599;27;46273;-66
2023/01/19 02:05:50;;;;;;;;;18.40;15.00;;;;;5.69;65.10;100200.75;2065181;27;45690;-67
2023/01/19 02:13:47;;;;;;;;;19.00;17.80;;;;;5.65;65.21;100208.69;2070130;27;47121;-66
2023/01/19 02:14:48;;;;;;;;;16.00;13.00;;;;;5.61;65.03;100208.75;2083308;27;47045;-65
2023/01/19 02:15:53;;;;;;;;;12.75;12.75;;;;;5.56;65.12;100205.25;2073516;27;45772;-66
2023/01/19 02:16:54;;;;;;;;;12.00;12.00;;;;;5.54;65.18;100212.31;2075502;27;46831;-65
2023/01/19 02:17:57;;;;;;;;;16.00;15.00;;;;;5.53;65.35;100214.94;2074084;28;46419;-66
2023/01/19 02:18:57;;;;;;;;;12.80;12.60;;;;;5.52;65.25;100213.22;2061897;28;46618;-65
2023/01/19 02:19:58;;;;;;;;;17.00;15.75;;;;;5.49;65.15;100215.88;2081374;27;46095;-67
2023/01/19 02:21:21;;;;;;;;;12.00;12.00;;;;;5.45;65.48;100217.63;2082652;27;46199;-66
2023/01/19 02:22:34;;;;;;;;;12.60;10.80;;;;;5.42;65.47;100222.94;2071635;27;46945;-65
2023/01/19 02:23:45;;;;;;;;;13.00;9.80;;;;;5.40;65.29;100213.31;2077612;28;46542;-64
2023/01/19 02:24:45;;;;;;;;;13.60;11.80;;;;;5.39;65.76;100216.84;2082906;27;46722;-65
2023/01/19 02:25:48;;;;;;;;;14.00;14.00;;;;;5.38;65.55;100218.59;2083826;27;46651;-64
2023/01/19 02:26:49;;;;;;;;;14.40;14.40;;;;;5.37;65.53;100218.63;2070328;27;46341;-65
2023/01/19 02:27:50;;;;;;;;;14.40;13.60;;;;;5.37;65.44;100210.72;2083918;27;46503;-64
2023/01/19 02:28:57;;;;;;;;;9.80;8.80;;;;;5.36;65.80;100214.25;2079286;27;46130;-65
2023/01/19 02:29:59;;;;;;;;;10.00;10.00;;;;;5.38;65.84;100215.09;2071698;27;46192;-65
2023/01/19 02:30:59;;;;;;;;;13.00;12.60;;;;;5.39;66.11;100214.19;2075120;28;46455;-64
2023/01/19 02:32:01;;;;;;;;;11.50;11.50;;;;;5.39;65.61;100212.44;2086337;28;46732;-65
2023/01/19 02:33:01;;;;;;;;;14.00;12.60;;;;;5.41;66.30;100215.06;2087332;28;46925;-65
2023/01/19 02:34:03;;;;;;;;;17.50;14.50;;;;;5.43;66.05;100215.91;2097478;28;46706;-64
2023/01/19 02:35:05;;;;;;;;;10.20;9.60;;;;;5.45;66.34;100211.50;2070397;27;47633;-66
2023/01/19 02:36:08;;;;;;;;;14.00;14.00;;;;;5.48;66.18;100219.41;2083532;27;46557;-64
2023/01/19 02:37:14;;;;;;;;;12.20;11.60;;;;;5.49;65.76;100219.38;2084503;27;46484;-65
2023/01/19 02:38:17;;;;;;;;;18.60;16.80;;;;;5.50;66.07;100215.84;2062134;28;46438;-65
2023/01/19 02:39:24;;;;;;;;;17.00;14.20;;;;;5.50;66.22;100214.97;2071443;27;46350;-65
2023/01/19 02:40:26;;;;;;;;;15.80;13.60;;;;;5.49;65.14;100218.50;2086521;27;46385;-63
2023/01/19 02:41:33;;;;;;;;;18.40;17.00;;;;;5.46;66.31;100214.16;2070463;28;45483;-66
2023/01/19 02:42:38;;;;;;;;;17.60;15.40;;;;;5.46;66.29;100210.63;2072314;27;47297;-66
2023/01/19 02:43:40;;;;;;;;;13.00;12.20;;;;;5.46;66.12;100215.88;2088061;27;46379;-64
2023/01/19 02:44:44;;;;;;;;;14.40;13.20;;;;;5.44;65.69;100210.63;2071474;28;45695;-65
2023/01/19 02:45:47;;;;;;;;;15.80;15.20;;;;;5.45;65.70;100214.13;2069277;27;46330;-66
2023/01/19 02:46:47;;;;;;;;;16.60;16.40;;;;;5.43;66.08;100214.16;2086617;27;46384;-64
2023/01/19 02:47:51;;;;;;;;;14.75;14.00;;;;;5.41;65.74;100210.66;2071476;27;46703;-65
2023/01/19 02:48:57;;;;;;;;;15.00;15.00;;;;;5.41;65.98;100215.94;2088684;27;46683;-64
2023/01/19 02:49:59;;;;;;;;;16.00;14.40;;;;;5.41;65.91;100215.94;2069839;27;46633;-65
2023/01/19 02:51:03;;;;;;;;;17.60;17.00;;;;;5.40;66.25;100219.44;2062167;28;46767;-64
2023/01/19 02:52:04;;;;;;;;;15.20;14.00;;;;;5.40;66.16;100210.69;2057692;28;46518;-66
2023/01/19 02:53:16;;;;;;;;;13.40;13.40;;;;;5.41;65.95;100210.66;2070592;27;45764;-66
2023/01/19 02:54:45;;;;;;;;;17.60;16.40;;;;;5.42;66.11;100209.78;2071615;27;45801;-64
2023/01/19 02:55:55;;;;;;;;;19.00;17.40;;;;;5.43;66.24;100208.03;2071417;28;46776;-65
2023/01/19 02:57:10;;;;;;;;;18.00;18.00;;;;;5.40;65.80;100210.69;2075169;28;45158;-65
2023/01/19 02:58:21;;;;;;;;;15.60;13.40;;;;;5.35;66.00;100208.09;2080566;27;47334;-65
2023/01/19 02:59:47;;;;;;;;;12.00;12.00;;;;;5.33;66.30;100212.47;2071457;27;45855;-65
2023/01/19 03:01:11;;;;;;;;;22.60;17.00;;;;;5.30;65.53;100204.63;2063279;28;46404;-65
2023/01/19 03:02:17;;;;;;;;;12.60;12.20;;;;;5.26;65.68;100208.16;2069865;28;46435;-65
2023/01/19 03:03:26;;;;;;;;;16.00;14.20;;;;;5.24;65.83;100209.94;2087144;27;45762;-64
2023/01/19 03:04:58;;;;;;;;;15.40;13.60;;;;;5.24;66.41;100207.31;2079614;27;46509;-65
2023/01/19 03:06:07;;;;;;;;;15.00;15.00;;;;;5.26;66.20;100213.44;2074889;27;46687;-65
2023/01/19 03:07:15;;;;;;;;;17.20;17.20;;;;;5.27;66.05;100210.78;2069215;28;46526;-66
2023/01/19 03:08:29;;;;;;;;;16.00;15.20;;;;;5.29;65.75;100210.78;2068001;28;45636;-65
2023/01/19 03:09:49;;;;;;;;;17.20;15.00;;;;;5.27;66.34;100210.78;2075232;27;46283;-64
2023/01/19 03:10:57;;;;;;;;;16.60;15.80;;;;;5.27;66.28;100216.06;2074047;27;45967;-65
2023/01/19 03:12:12;;;;;;;;;17.60;16.20;;;;;5.28;66.48;100211.66;2072467;28;46529;-65
2023/01/19 03:13:15;;;;;;;;;14.20;13.80;;;;;5.29;66.53;100203.75;2066709;28;46595;-66
2023/01/19 03:14:22;;;;;;;;;18.20;15.00;;;;;5.30;66.15;100208.13;2067498;28;46565;-68
2023/01/19 03:15:32;;;;;;;;;16.00;16.00;;;;;5.34;66.37;100208.13;2063257;28;45755;-66
2023/01/19 03:16:47;;;;;;;;;19.60;15.20;;;;;5.37;66.64;100218.63;2075972;27;45712;-66
2023/01/19 03:17:50;;;;;;;;;23.80;20.40;;;;;5.36;65.88;100209.84;2075702;27;46391;-66
2023/01/19 03:18:54;;;;;;;;;19.40;19.40;;;;;5.35;66.29;100216.00;2073482;27;45732;-66
2023/01/19 03:19:56;;;;;;;;;20.00;18.20;;;;;5.35;65.96;100212.50;2073317;28;46572;-65
2023/01/19 03:21:02;;;;;;;;;21.00;18.20;;;;;5.34;66.39;100213.38;2077329;27;46174;-65
2023/01/19 03:22:09;;;;;;;;;17.80;13.20;;;;;5.34;66.66;100205.50;2067361;27;46731;-65
2023/01/19 03:23:13;;;;;;;;;18.20;17.20;;;;;5.34;66.24;100206.38;2074014;28;46967;-65
2023/01/19 03:24:17;;;;;;;;;18.40;17.60;;;;;5.34;66.29;100209.00;2075178;28;45135;-65
2023/01/19 03:25:21;;;;;;;;;19.80;16.40;;;;;5.34;66.57;100205.50;2071382;28;46097;-66
2023/01/19 03:26:27;;;;;;;;;15.20;15.20;;;;;5.32;66.75;100200.22;2074164;27;46847;-66
2023/01/19 03:27:32;;;;;;;;;18.80;16.00;;;;;5.35;66.46;100204.59;2072797;28;46053;-65
2023/01/19 03:28:35;;;;;;;;;19.80;18.80;;;;;5.36;66.47;100208.97;2075045;27;46741;-66
2023/01/19 03:29:38;;;;;;;;;18.60;18.40;;;;;5.37;66.49;100210.72;2079801;27;46947;-65
2023/01/19 03:30:45;;;;;;;;;21.80;19.20;;;;;5.37;66.35;100205.47;2063979;28;46362;-66
2023/01/19 03:31:48;;;;;;;;;19.60;18.60;;;;;5.39;66.59;100208.94;2069617;28;46056;-65
2023/01/19 03:32:55;;;;;;;;;24.20;19.60;;;;;5.39;66.35;100201.91;2065965;27;46448;-65
2023/01/19 03:34:01;;;;;;;;;15.20;12.40;;;;;5.39;66.08;100211.56;2075907;27;46677;-65
2023/01/19 03:35:06;;;;;;;;;14.80;14.80;;;;;5.39;66.39;100208.94;2067957;27;45846;-65
2023/01/19 03:36:17;;;;;;;;;16.80;16.80;;;;;5.35;65.90;100210.75;2066657;28;45730;-66
2023/01/19 03:37:20;;;;;;;;;19.00;17.00;;;;;5.32;66.30;100208.97;2072045;27;45363;-66
2023/01/19 03:38:25;;;;;;;;;15.20;14.60;;;;;5.34;66.30;100213.38;2067567;28;46548;-66
2023/01/19 03:39:26;;;;;;;;;19.40;18.60;;;;;5.31;66.29;100206.38;2064576;28;46184;-65
2023/01/19 03:40:29;;;;;;;;;15.40;15.40;;;;;5.31;66.19;100216.88;2093266;27;46484;-66
2023/01/19 03:41:33;;;;;;;;;15.80;14.60;;;;;5.30;66.02;100212.50;2106539;27;46871;-65
2023/01/19 03:42:35;;;;;;;;;14.80;14.80;;;;;5.29;65.83;100206.38;2114371;27;46615;-66
2023/01/19 03:43:38;;;;;;;;;18.00;16.20;;;;;5.28;66.33;100209.03;2104768;27;46812;-66
2023/01/19 03:44:41;;;;;;;;;16.60;16.00;;;;;5.26;66.24;100211.69;2109233;27;45648;-67
2023/01/19 03:45:42;;;;;;;;;18.20;17.20;;;;;5.26;65.84;100216.06;2110697;27;46360;-65
2023/01/19 03:46:46;;;;;;;;;19.60;18.40;;;;;5.27;66.32;100212.53;2104658;27;46424;-65
2023/01/19 03:47:46;;;;;;;;;18.00;17.20;;;;;5.27;66.36;100212.53;2105697;27;46435;-66
2023/01/19 03:48:48;;;;;;;;;19.25;17.00;;;;;5.28;66.21;100214.28;2105239;27;46645;-66
2023/01/19 03:49:52;;;;;;;;;21.40;18.80;;;;;5.28;66.35;100211.66;2105259;27;46610;-66
2023/01/19 03:50:52;;;;;;;;;17.40;15.20;;;;;5.27;66.57;100210.78;2114233;27;46839;-66
2023/01/19 03:51:57;;;;;;;;;19.50;16.75;;;;;5.30;66.52;100217.78;2085500;27;46620;-66
2023/01/19 03:53:05;;;;;;;;;20.00;16.80;;;;;5.31;66.54;100215.13;2072480;27;46368;-66
2023/01/19 03:54:08;;;;;;;;;19.60;17.40;;;;;5.34;65.86;100213.38;2114554;27;45939;-66
2023/01/19 03:55:09;;;;;;;;;19.60;16.20;;;;;5.35;66.08;100216.00;2108598;27;46274;-65
2023/01/19 03:56:27;;;;;;;;;18.25;18.25;;;;;5.36;66.14;100212.47;2109127;27;46696;-66
2023/01/19 03:57:27;;;;;;;;;23.80;19.80;;;;;5.36;66.15;100214.25;2114359;27;45902;-66
2023/01/19 03:58:28;;;;;;;;;17.50;14.75;;;;;5.36;66.32;100216.88;2098710;27;45985;-65
2023/01/19 03:59:28;;;;;;;;;20.75;18.00;;;;;5.37;66.19;100216.84;2073987;27;45392;-66
2023/01/19 04:00:29;;;;;;;;;17.00;15.25;;;;;5.38;66.40;100217.72;2079218;28;46538;-65
2023/01/19 04:01:29;;;;;;;;;17.25;17.25;;;;;5.38;66.14;100209.81;2072401;27;45589;-66
2023/01/19 04:02:30;;;;;;;;;20.50;19.00;;;;;5.39;66.30;100217.72;2063174;28;46123;-65
2023/01/19 04:03:30;;;;;;;;;22.50;20.50;;;;;5.39;66.17;100212.44;2065758;28;44989;-67
2023/01/19 04:04:30;;;;;;;;;20.75;19.00;;;;;5.40;65.86;100218.56;2064876;28;46412;-66
2023/01/19 04:05:31;;;;;;;;;18.50;16.50;;;;;5.40;66.13;100223.84;2071200;28;46666;-67
2023/01/19 04:06:32;;;;;;;;;19.20;18.60;;;;;5.39;66.27;100216.84;2073181;27;46544;-66
2023/01/19 04:07:32;;;;;;;;;19.75;17.00;;;;;5.38;66.44;100215.97;2055542;28;45607;-66
2023/01/19 04:08:32;;;;;;;;;23.75;20.25;;;;;5.39;66.60;100220.34;2066858;28;46750;-66
2023/01/19 04:09:33;;;;;;;;;24.00;19.75;;;;;5.39;66.06;100215.06;2077876;27;47241;-66
2023/01/19 04:10:33;;;;;;;;;22.00;19.50;;;;;5.38;66.40;100221.22;2079061;27;46754;-66
2023/01/19 04:11:34;;;;;;;;;18.75;17.25;;;;;5.38;66.32;100217.72;2078134;27;45898;-64
2023/01/19 04:12:34;;;;;;;;;21.00;19.00;;;;;5.38;66.38;100215.09;2081702;27;46494;-65
2023/01/19 04:13:35;;;;;;;;;14.25;13.50;;;;;5.38;66.41;100218.59;2076281;27;48582;-64
2023/01/19 04:14:35;;;;;;;;;18.75;18.75;;;;;5.37;66.59;100219.47;2078298;27;46289;-65
2023/01/19 04:15:35;;;;;;;;;19.50;19.25;;;;;5.39;66.45;100225.59;2080577;27;46222;-65
2023/01/19 04:16:36;;;;;;;;;18.75;18.00;;;;;5.40;66.69;100218.56;2077030;27;46606;-66
2023/01/19 04:17:37;;;;;;;;;24.00;22.00;;;;;5.41;66.41;100220.31;2079155;27;48258;-64
2023/01/19 04:18:37;;;;;;;;;22.00;19.40;;;;;5.43;66.46;100221.19;2079221;28;46530;-64
2023/01/19 04:19:38;;;;;;;;;20.75;18.50;;;;;5.45;66.50;100222.03;2079176;27;45532;-65
2023/01/19 04:20:38;;;;;;;;;17.25;17.25;;;;;5.46;66.61;100222.03;2084096;27;45695;-66
2023/01/19 04:21:38;;;;;;;;;23.50;19.50;;;;;5.48;66.04;100220.25;2068683;27;46329;-66
2023/01/19 04:22:39;;;;;;;;;25.25;22.25;;;;;5.49;66.19;100223.78;2077924;27;46184;-65
2023/01/19 04:23:39;;;;;;;;;20.25;20.25;;;;;5.50;66.18;100222.88;2078961;27;46001;-65
2023/01/19 04:24:39;;;;;;;;;19.25;17.25;;;;;5.50;66.76;100220.25;2078564;27;46727;-64
2023/01/19 04:25:40;;;;;;;;;22.25;22.00;;;;;5.50;66.17;100218.50;2078301;27;46529;-66
2023/01/19 04:26:40;;;;;;;;;25.75;23.75;;;;;5.51;66.26;100220.22;2062396;28;45903;-66
2023/01/19 04:27:41;;;;;;;;;19.25;19.00;;;;;5.53;66.57;100214.94;2074022;27;46421;-65
2023/01/19 04:28:41;;;;;;;;;21.25;20.25;;;;;5.52;66.59;100218.47;2074881;27;45639;-65
2023/01/19 04:29:42;;;;;;;;;17.25;17.25;;;;;5.54;66.38;100220.19;2077216;27;46811;-65
2023/01/19 04:30:42;;;;;;;;;19.50;17.50;;;;;5.53;66.58;100213.19;2079894;27;45845;-66
2023/01/19 04:31:42;;;;;;;;;24.50;21.50;;;;;5.52;66.15;100214.06;2076846;27;45667;-66
2023/01/19 04:32:43;;;;;;;;;21.75;19.25;;;;;5.53;66.16;100218.44;2062782;28;46326;-65
2023/01/19 04:33:43;;;;;;;;;14.00;12.50;;;;;5.51;66.45;100214.97;2062271;28;46232;-66
2023/01/19 04:34:44;;;;;;;;;20.25;19.25;;;;;5.50;66.53;100214.97;2078130;27;46376;-66
2023/01/19 04:35:45;;;;;;;;;20.00;19.00;;;;;5.49;65.94;100213.25;2073830;27;46205;-65
2023/01/19 04:36:49;;;;;;;;;20.00;19.20;;;;;5.46;66.42;100211.53;2074922;27;46831;-65
2023/01/19 04:37:50;;;;;;;;;25.40;22.40;;;;;5.46;66.41;100210.63;2078070;27;46019;-65
2023/01/19 04:38:50;;;;;;;;;22.25;20.75;;;;;5.45;66.18;100211.50;2083847;27;46196;-65
2023/01/19 04:39:51;;;;;;;;;22.25;21.25;;;;;5.44;66.51;100210.63;2067929;28;46579;-65
2023/01/19 04:40:52;;;;;;;;;18.25;18.25;;;;;5.42;66.42;100212.41;2076430;27;46255;-65
2023/01/19 04:41:53;;;;;;;;;20.60;20.00;;;;;5.44;66.40;100215.03;2073613;27;46319;-65
2023/01/19 04:42:53;;;;;;;;;18.50;18.50;;;;;5.44;66.25;100212.41;2078699;27;45514;-65
2023/01/19 04:43:53;;;;;;;;;17.25;16.75;;;;;5.44;66.22;100209.75;2075464;27;46308;-64
2023/01/19 04:44:54;;;;;;;;;19.75;19.75;;;;;5.45;66.44;100208.88;2076209;27;46712;-64
2023/01/19 04:45:54;;;;;;;;;19.50;18.25;;;;;5.44;65.97;100213.25;2077451;27;46661;-65
2023/01/19 04:46:54;;;;;;;;;23.75;20.00;;;;;5.42;66.62;100212.41;2074995;27;46310;-66
2023/01/19 04:47:55;;;;;;;;;21.00;19.75;;;;;5.41;65.96;100215.94;2076904;27;46252;-65
2023/01/19 04:48:55;;;;;;;;;21.00;19.75;;;;;5.42;66.86;100212.41;2076713;27;46820;-65
2023/01/19 04:49:55;;;;;;;;;25.00;22.00;;;;;5.42;66.25;100215.03;2075309;27;45503;-66
2023/01/19 04:50:55;;;;;;;;;21.50;17.25;;;;;5.43;66.16;100210.66;2078621;27;46375;-66
2023/01/19 04:51:56;;;;;;;;;18.50;16.00;;;;;5.41;65.98;100213.31;2070612;27;46584;-65
2023/01/19 04:52:56;;;;;;;;;15.00;13.25;;;;;5.40;66.30;100210.69;2068328;27;45058;-66
2023/01/19 04:53:57;;;;;;;;;24.25;20.50;;;;;5.38;66.19;100210.69;2070623;27;45575;-67
2023/01/19 04:54:57;;;;;;;;;20.25;19.25;;;;;5.37;66.91;100213.34;2069743;28;46262;-66
2023/01/19 04:55:59;;;;;;;;;18.00;17.25;;;;;5.38;66.45;100207.19;2071233;27;46602;-67
2023/01/19 04:56:59;;;;;;;;;14.00;11.80;;;;;5.37;66.91;100206.31;2071053;28;46883;-66
2023/01/19 04:58:00;;;;;;;;;21.50;21.00;;;;;5.36;66.21;100212.47;2070388;28;46647;-66
2023/01/19 04:59:00;;;;;;;;;21.00;17.25;;;;;5.37;66.15;100208.09;2069115;27;46177;-67